createdAt,value
2018-05-07T00:01:38.021Z,86.41
2018-05-07T00:06:33.896Z,87.61
2018-05-07T00:11:29.775Z,87.99
2018-05-07T00:16:25.425Z,88.95
2018-05-07T00:21:25.109Z,89.72
2018-05-07T00:26:20.216Z,89.81
2018-05-07T00:31:16.964Z,90.53
2018-05-07T00:36:17.583Z,91.68
2018-05-07T00:41:12.353Z,91.49
2018-05-07T00:46:08.169Z,92.83
2018-05-07T00:51:08.843Z,92.54
2018-05-07T00:56:07.639Z,94.07
2018-05-07T01:01:02.726Z,94.26
2018-05-07T01:05:58.853Z,94.17
2018-05-07T01:10:55.854Z,95.46
2018-05-07T01:15:51.216Z,96.61
2018-05-07T01:20:50.988Z,96.99
2018-05-07T01:25:45.896Z,97.08
2018-05-07T01:30:45.408Z,96.51
2018-05-07T01:35:40.788Z,96.22
2018-05-07T01:40:41.828Z,97.08
2018-05-07T01:45:36.549Z,96.03
2018-05-07T01:50:33.396Z,96.27
2018-05-07T01:55:32.909Z,96.80
2018-05-07T02:00:29.275Z,97.61
2018-05-07T02:05:24.796Z,97.90
2018-05-07T02:10:20.277Z,97.61
2018-05-07T02:15:17.143Z,99.04
2018-05-07T02:20:16.347Z,99.99
2018-05-07T02:25:15.118Z,99.99
2018-05-07T02:30:14.035Z,99.99
2018-05-07T02:35:08.943Z,99.99
2018-05-07T02:40:05.310Z,99.99
2018-05-07T02:45:01.214Z,99.99
2018-05-07T02:49:57.015Z,99.99
2018-05-07T02:54:53.101Z,99.99
2018-05-07T02:59:50.117Z,99.99
2018-05-07T03:04:49.499Z,99.99
2018-05-07T03:09:47.983Z,99.99
2018-05-07T03:14:46.959Z,99.99
2018-05-07T03:19:41.722Z,99.99
2018-05-07T03:24:37.470Z,99.99
2018-05-07T03:29:34.280Z,99.99
2018-05-07T03:34:30.317Z,99.99
2018-05-07T03:39:27.205Z,99.99
2018-05-07T03:44:22.639Z,99.99
2018-05-07T03:49:18.772Z,99.99
2018-05-07T03:54:14.506Z,99.99
2018-05-07T03:59:14.326Z,99.99
2018-05-07T04:04:09.241Z,99.99
2018-05-07T04:09:05.363Z,99.99
2018-05-07T04:14:05.180Z,99.99
2018-05-07T04:19:04.179Z,99.99
2018-05-07T04:24:00.248Z,99.99
2018-05-07T04:28:55.924Z,99.99
2018-05-07T04:33:52.830Z,99.99
2018-05-07T04:38:48.713Z,98.90
2018-05-07T04:43:44.861Z,96.51
2018-05-07T04:48:40.916Z,96.08
2018-05-07T04:53:41.085Z,94.74
2018-05-07T04:58:36.084Z,94.26
2018-05-07T05:03:32.028Z,93.31
2018-05-07T05:08:28.373Z,93.12
2018-05-07T05:13:25.007Z,91.16
2018-05-07T05:18:21.616Z,90.30
2018-05-07T05:23:17.692Z,90.20
2018-05-07T05:28:13.569Z,89.05
2018-05-07T05:33:09.700Z,89.53
2018-05-07T05:38:06.690Z,87.95
2018-05-07T05:43:02.515Z,88.71
2018-05-07T05:48:03.629Z,87.18
2018-05-07T05:52:59.961Z,85.41
2018-05-07T05:57:59.527Z,85.12
2018-05-07T06:02:58.224Z,83.39
2018-05-07T06:07:53.634Z,81.62
2018-05-07T06:12:49.974Z,81.62
2018-05-07T06:17:49.740Z,79.51
2018-05-07T06:22:44.835Z,80.47
2018-05-07T06:27:44.859Z,77.21
2018-05-07T06:32:40.892Z,77.34
2018-05-07T06:37:36.556Z,76.57
2018-05-07T06:42:32.654Z,76.39
2018-05-07T06:47:28.695Z,76.67
2018-05-07T06:52:24.892Z,75.56
2018-05-07T06:57:20.450Z,75.37
2018-05-07T07:02:21.584Z,74.41
2018-05-07T07:07:16.521Z,73.93
2018-05-07T07:12:13.293Z,73.20
2018-05-07T07:17:08.856Z,72.05
2018-05-07T07:22:04.989Z,71.09
2018-05-07T07:27:05.981Z,72.66
2018-05-07T07:32:01.075Z,69.59
2018-05-07T07:36:57.145Z,69.97
2018-05-07T07:41:53.692Z,67.99
2018-05-07T07:46:50.518Z,65.81
2018-05-07T07:51:47.751Z,61.71
2018-05-07T07:56:47.269Z,54.82
2018-05-07T08:01:45.715Z,51.65
2018-05-07T08:06:43.357Z,49.05
2018-05-07T08:11:40.675Z,46.51
2018-05-07T08:16:38.172Z,45.17
2018-05-07T08:21:38.783Z,48.66
2018-05-07T08:26:35.383Z,46.12
2018-05-07T08:31:32.212Z,45.81
2018-05-07T08:36:29.409Z,45.05
2018-05-07T08:41:25.482Z,45.05
2018-05-07T08:46:24.620Z,45.78
2018-05-07T08:51:18.598Z,48.06
2018-05-07T08:56:16.657Z,49.87
2018-05-07T09:01:11.701Z,49.29
2018-05-07T09:06:07.238Z,49.37
2018-05-07T09:11:02.210Z,49.39
2018-05-07T09:15:58.823Z,49.10
2018-05-07T09:20:58.394Z,45.51
2018-05-07T09:25:56.715Z,44.86
2018-05-07T09:30:54.102Z,41.16
2018-05-07T09:35:52.130Z,40.75
2018-05-07T09:40:53.469Z,40.08
2018-05-07T09:45:50.124Z,35.78
2018-05-07T09:50:46.607Z,38.15
2018-05-07T09:55:46.570Z,37.57
2018-05-07T10:00:41.784Z,38.27
2018-05-07T10:05:38.248Z,37.06
2018-05-07T10:10:34.943Z,36.97
2018-05-07T10:15:30.919Z,38.32
2018-05-07T10:20:30.996Z,38.44
2018-05-07T10:25:30.276Z,35.58
2018-05-07T10:30:26.291Z,34.82
2018-05-07T10:35:22.822Z,34.84
2018-05-07T10:40:20.523Z,34.63
2018-05-07T10:45:16.296Z,36.05
2018-05-07T10:50:13.570Z,35.31
2018-05-07T10:55:13.592Z,34.25
2018-05-07T11:00:14.251Z,33.41
2018-05-07T11:05:09.880Z,36.07
2018-05-07T11:10:05.731Z,36.29
2018-05-07T11:15:06.223Z,38.68
2018-05-07T11:20:04.983Z,37.37
2018-05-07T11:25:00.907Z,35.70
2018-05-07T11:29:57.829Z,35.40
2018-05-07T11:34:57.817Z,35.21
2018-05-07T11:39:53.906Z,33.64
2018-05-07T11:44:50.560Z,32.35
2018-05-07T11:49:48.184Z,35.86
2018-05-07T11:54:44.938Z,35.08
2018-05-07T11:59:40.725Z,36.22
2018-05-07T12:04:36.257Z,33.64
2018-05-07T12:09:32.293Z,34.43
2018-05-07T12:14:32.489Z,33.11
2018-05-07T12:19:27.416Z,35.31
2018-05-07T12:24:27.615Z,34.43
2018-05-07T12:29:22.591Z,33.22
2018-05-07T12:34:23.049Z,31.48
2018-05-07T12:39:17.644Z,35.08
2018-05-07T12:44:13.542Z,36.50
2018-05-07T12:49:11.127Z,34.79
2018-05-07T12:54:08.960Z,33.20
2018-05-07T12:59:05.751Z,29.32
2018-05-07T13:04:06.310Z,29.24
2018-05-07T13:09:01.974Z,29.81
2018-05-07T13:13:57.918Z,32.31
2018-05-07T13:18:57.695Z,32.62
2018-05-07T13:23:56.444Z,32.31
2018-05-07T13:28:51.740Z,30.19
2018-05-07T13:33:47.571Z,31.34
2018-05-07T13:38:44.237Z,32.07
2018-05-07T13:43:39.144Z,32.37
2018-05-07T13:48:35.273Z,31.00
2018-05-07T13:53:30.531Z,32.12
2018-05-07T13:58:25.945Z,32.87
2018-05-07T14:03:21.178Z,33.15
2018-05-07T14:08:20.731Z,33.60
2018-05-07T14:13:15.727Z,34.69
2018-05-07T14:18:12.326Z,33.54
2018-05-07T14:23:09.126Z,31.50
2018-05-07T14:28:08.909Z,33.83
2018-05-07T14:33:07.954Z,32.26
2018-05-07T14:38:06.885Z,33.33
2018-05-07T14:43:01.960Z,33.33
2018-05-07T14:47:57.794Z,33.72
2018-05-07T14:52:53.744Z,33.52
2018-05-07T14:57:49.606Z,32.84
2018-05-07T15:02:49.424Z,33.81
2018-05-07T15:07:45.424Z,35.56
2018-05-07T15:12:40.976Z,36.72
2018-05-07T15:17:37.158Z,35.94
2018-05-07T15:22:36.799Z,33.70
2018-05-07T15:27:31.934Z,34.28
2018-05-07T15:32:27.946Z,34.96
2018-05-07T15:37:27.901Z,36.80
2018-05-07T15:42:26.948Z,35.07
2018-05-07T15:47:26.491Z,34.67
2018-05-07T15:52:21.726Z,33.51
2018-05-07T15:57:22.411Z,34.09
2018-05-07T16:02:17.112Z,34.96
2018-05-07T16:07:13.329Z,33.31
2018-05-07T16:12:09.601Z,33.41
2018-05-07T16:17:09.384Z,33.70
2018-05-07T16:22:05.148Z,33.99
2018-05-07T16:27:01.260Z,33.99
2018-05-07T16:32:01.264Z,34.28
2018-05-07T16:37:00.397Z,35.05
2018-05-07T16:41:59.463Z,35.73
2018-05-07T16:46:58.352Z,35.05
2018-05-07T16:51:54.912Z,33.51
2018-05-07T16:56:50.670Z,32.92
2018-05-07T17:01:46.576Z,32.82
2018-05-07T17:06:46.458Z,32.15
2018-05-07T17:11:46.404Z,32.23
2018-05-07T17:21:42.020Z,33.87
2018-05-07T17:26:41.555Z,33.39
2018-05-07T17:31:40.946Z,34.17
2018-05-07T17:36:39.875Z,34.83
2018-05-07T17:41:36.266Z,34.34
2018-05-07T17:46:33.358Z,34.44
2018-05-07T17:51:28.768Z,36.38
2018-05-07T17:56:28.721Z,35.50
2018-05-07T18:01:23.802Z,38.58
2018-05-07T18:06:23.421Z,42.25
2018-05-07T18:11:19.792Z,45.23
2018-05-07T18:16:15.346Z,47.55
2018-05-07T18:21:15.241Z,50.35
2018-05-07T18:26:10.267Z,52.26
2018-05-07T18:31:10.262Z,52.72
2018-05-07T18:36:06.316Z,53.59
2018-05-07T18:41:05.822Z,54.07
2018-05-07T18:46:00.669Z,54.91
2018-05-07T18:55:57.012Z,55.94
2018-05-07T19:00:56.575Z,55.66
2018-05-07T19:05:52.521Z,56.52
2018-05-07T19:10:49.127Z,56.59
2018-05-07T19:15:44.710Z,57.65
2018-05-07T19:20:40.519Z,58.11
2018-05-07T19:25:40.248Z,59.27
2018-05-07T19:30:36.052Z,60.90
2018-05-07T19:35:32.667Z,61.93
2018-05-07T19:40:28.177Z,62.80
2018-05-07T19:45:27.874Z,63.76
2018-05-07T19:50:22.773Z,64.40
2018-05-07T19:55:22.393Z,65.27
2018-05-07T20:00:17.239Z,66.04
2018-05-07T20:05:13.264Z,66.10
2018-05-07T20:10:13.038Z,66.97
2018-05-07T20:15:13.612Z,67.45
2018-05-07T20:20:13.252Z,67.55
2018-05-07T20:25:11.941Z,67.90
2018-05-07T20:30:06.851Z,70.50
2018-05-07T20:35:02.616Z,70.17
2018-05-07T20:40:02.427Z,71.91
2018-05-07T20:44:57.327Z,71.42
2018-05-07T20:49:53.417Z,72.48
2018-05-07T20:54:53.144Z,72.58
2018-05-07T20:59:48.389Z,72.09
2018-05-07T21:04:49.316Z,69.21
2018-05-07T21:09:43.965Z,69.69
2018-05-07T21:14:40.099Z,69.95
2018-05-07T21:19:39.639Z,69.37
2018-05-07T21:24:34.905Z,70.52
2018-05-07T21:29:35.548Z,72.50
2018-05-07T21:34:31.294Z,70.58
2018-05-07T21:39:26.669Z,70.39
2018-05-07T21:44:22.195Z,70.49
2018-05-07T21:49:19.157Z,70.10
2018-05-07T21:54:14.673Z,70.87
2018-05-07T21:59:10.709Z,70.97
2018-05-07T22:04:07.573Z,72.18
2018-05-07T22:09:04.650Z,71.70
2018-05-07T22:14:01.319Z,71.98
2018-05-07T22:19:00.859Z,72.47
2018-05-07T22:23:59.601Z,73.91
2018-05-07T22:28:55.457Z,74.54
2018-05-07T22:33:51.285Z,75.12
2018-05-07T22:38:47.051Z,76.94
2018-05-07T22:43:43.886Z,77.13
2018-05-07T22:48:39.514Z,76.52
2018-05-07T22:53:36.359Z,77.19
2018-05-07T22:58:31.953Z,78.05
2018-05-07T23:03:27.713Z,76.81
2018-05-07T23:08:25.066Z,77.29
2018-05-07T23:13:20.581Z,77.67
2018-05-07T23:18:16.572Z,78.69
2018-05-07T23:23:16.308Z,79.45
2018-05-07T23:28:15.505Z,79.93
2018-05-07T23:33:15.482Z,80.70
2018-05-07T23:38:14.216Z,78.49
2018-05-07T23:43:09.010Z,80.51
2018-05-07T23:48:04.787Z,79.45
2018-05-07T23:53:01.239Z,79.99
2018-05-07T23:58:00.824Z,80.66
